Terminal Aerodrome Forecast
Issued by NWS Albany, NY

Home | Current Version | Previous Version | Text Only | Print | Product List | Glossary On
Versions: 1 2 3 4 5 6 7 8 9 10 11 12 13 14 15 16 17 18 19 20 21 22 23 24 25
375
FTUS41 KALY 220710 AAA
TAFGFL
TAF AMD
KGFL 220710Z 2207/2306 VRB03KT 4SM BR BKN250
      TEMPO 2207/2211 2SM BR
     FM221500 05007KT P6SM FEW050 SCT250
     FM222200 VRB03KT P6SM SCT250
     FM230400 00000KT 4SM BR SCT250=

USA.gov is the U.S. government's official web portal to all federal, state and local government web resources and services.